Unser Platzwetter:

(um das Bild zu aktualisieren oder bei unvollständig geladenem Bild den Reload-Button des Browsers drücken)

[Quelle: ADDS]
METAR
ETNN 182120Z 24005KT 9999 BKN060 BKN110 10/05 Q1020 BLU =
ETNN 181900Z 1820/1905 28005KT 9999 NSW BKN060 BECMG 1822/1823 31005KT 7000 -RA BKN040 TEMPO 1823/1905 31010KT 4000 -SHRA BKN020TCU PROB30 1823/1903 32015KT 2000 SHRA BKN015CB BY ETGL
TAF
ETNN 181900Z 1820/1905 28005KT 9999 NSW BKN060 BECMG 1822/1823 31005KT 7000 -RA BKN040 TEMPO 1823/1905 31010KT 4000 -SHRA BKN020TCU PROB30 1823/1903 32015KT 2000 SHRA BKN015CB BY ETGL =
SR / SS: 04:32 / 18:33 UTC (Vettweiss-Soller 2021-04-18)

Aktuelle Windrichtung in Relation zu unserer Bahn:

 

Aktuelle Dichtehöhe bei uns am Platz: -195 ft.

PPR beachten

50 44 51 N / 06 34 01 E
525 ft
14/32 Gras 360 m
136.090 MHz
02424/901444

Kontakt:

LSG Gertrudenhof e.V.
c/o Franz-Josef Schmidt
An der Gärtnerei 13
52388 Nörvenich
02426/9593651
0175/2660491

in Lokalzeit:
06:30
20:35